createdAt,value
2023-04-02T06:59:51.371Z,96.20
2023-04-02T07:04:46.188Z,96.00
2023-04-02T07:07:13.710Z,95.80
2023-04-02T07:09:42.515Z,96.10
2023-04-02T07:12:14.225Z,96.50
2023-04-02T07:14:41.731Z,96.60
2023-04-02T07:17:18.069Z,96.20
2023-04-02T07:19:49.664Z,96.00
2023-04-02T07:22:19.447Z,96.10
2023-04-02T07:24:47.224Z,96.20
2023-04-02T07:27:15.583Z,96.30
2023-04-02T07:29:43.097Z,96.00
2023-04-02T07:32:14.173Z,95.40
2023-04-02T07:34:42.472Z,95.50
2023-04-02T07:37:14.876Z,95.70
2023-04-02T07:39:42.424Z,95.30
2023-04-02T07:42:10.281Z,95.50
2023-04-02T07:44:37.869Z,95.30
2023-04-02T07:47:05.632Z,94.90
2023-04-02T07:49:33.127Z,95.20
2023-04-02T07:52:00.926Z,95.40
2023-04-02T07:54:28.538Z,94.40
2023-04-02T07:56:56.519Z,94.60
2023-04-02T07:59:24.103Z,94.70
2023-04-02T08:01:53.659Z,94.80
2023-04-02T08:04:23.393Z,94.90
2023-04-02T08:06:52.966Z,95.10
2023-04-02T08:09:20.392Z,95.00
2023-04-02T08:11:47.838Z,95.30
2023-04-02T08:14:15.644Z,95.40
2023-04-02T08:16:53.745Z,94.80
2023-04-02T08:19:22.152Z,94.40
2023-04-02T08:21:52.082Z,94.60
2023-04-02T08:24:21.131Z,94.70
2023-04-02T08:26:51.569Z,94.40
2023-04-02T08:29:19.287Z,95.10
2023-04-02T08:31:46.736Z,94.90
2023-04-02T08:34:14.382Z,94.70
2023-04-02T08:36:45.668Z,93.80
2023-04-02T08:39:13.581Z,93.20
2023-04-02T08:42:44.922Z,92.50
2023-04-02T08:45:58.187Z,91.60
2023-04-02T08:48:25.732Z,91.10
2023-04-02T08:50:53.757Z,89.30
2023-04-02T08:53:32.360Z,90.20
2023-04-02T08:56:24.141Z,89.30
2023-04-02T08:58:57.788Z,89.30
2023-04-02T09:02:07.024Z,89.50
2023-04-02T09:04:37.067Z,90.10
2023-04-02T09:07:04.714Z,88.00
2023-04-02T09:09:39.276Z,89.00
2023-04-02T09:12:29.460Z,87.40
2023-04-02T09:15:34.317Z,87.60
2023-04-02T09:18:19.946Z,87.00
2023-04-02T09:20:49.475Z,85.20
2023-04-02T09:23:24.171Z,84.40
2023-04-02T09:26:04.268Z,84.00
2023-04-02T09:28:32.414Z,84.80
2023-04-02T09:31:37.870Z,83.10
2023-04-02T09:34:34.873Z,84.10
2023-04-02T09:37:25.698Z,83.20
2023-04-02T09:40:09.899Z,85.10
2023-04-02T09:42:38.288Z,82.30
2023-04-02T09:45:35.672Z,83.50
2023-04-02T09:48:14.932Z,83.80
2023-04-02T09:50:42.305Z,84.60
2023-04-02T09:53:33.850Z,81.50
2023-04-02T09:56:24.429Z,80.30
2023-04-02T09:59:16.195Z,84.00
2023-04-02T10:01:57.120Z,83.20
2023-04-02T10:04:49.881Z,83.40
2023-04-02T10:07:45.128Z,82.90
2023-04-02T10:10:46.844Z,80.50
2023-04-02T10:14:02.114Z,83.20
2023-04-02T10:17:11.822Z,81.00
2023-04-02T10:19:47.412Z,82.20
2023-04-02T10:22:22.487Z,80.40
2023-04-02T10:24:51.371Z,81.40
2023-04-02T10:28:34.598Z,79.40
2023-04-02T10:31:48.188Z,79.60
2023-04-02T10:34:54.392Z,76.70
2023-04-02T10:37:45.906Z,77.90
2023-04-02T10:40:47.985Z,77.70
2023-04-02T10:44:20.474Z,74.60
2023-04-02T10:47:32.317Z,72.60
2023-04-02T10:50:15.789Z,71.90
2023-04-02T10:53:45.729Z,70.30
2023-04-02T10:56:14.644Z,71.70
2023-04-02T10:59:26.233Z,76.80
2023-04-02T11:01:58.817Z,77.70
2023-04-02T11:04:42.423Z,78.20
2023-04-02T11:07:22.684Z,78.40
2023-04-02T11:09:56.474Z,78.40
2023-04-02T11:12:49.671Z,77.30
2023-04-02T11:15:20.498Z,78.00
2023-04-02T11:17:48.637Z,77.80
2023-04-02T11:21:03.361Z,77.70
2023-04-02T11:24:01.346Z,79.10
2023-04-02T11:26:47.558Z,78.30
2023-04-02T11:29:29.160Z,78.20
2023-04-02T11:32:25.582Z,78.10
2023-04-02T11:35:06.632Z,78.70
2023-04-02T11:37:45.734Z,77.60
2023-04-02T11:40:16.043Z,77.50
2023-04-02T11:42:50.523Z,76.70
2023-04-02T11:45:52.852Z,77.20
2023-04-02T11:48:20.682Z,74.60
2023-04-02T11:50:48.203Z,74.30
2023-04-02T11:53:15.734Z,73.50
2023-04-02T11:56:06.563Z,71.20
2023-04-02T11:59:30.116Z,71.50
2023-04-02T12:02:28.763Z,71.80
2023-04-02T12:05:54.813Z,71.90
2023-04-02T12:09:23.765Z,74.10
2023-04-02T12:12:00.040Z,73.70
2023-04-02T12:14:51.947Z,73.60
2023-04-02T12:17:36.052Z,70.70
2023-04-02T12:20:09.928Z,71.40
2023-04-02T12:22:53.527Z,71.00
2023-04-02T12:25:40.492Z,68.00
2023-04-02T12:28:11.191Z,68.00
2023-04-02T12:30:40.529Z,67.80
2023-04-02T12:33:23.199Z,68.30
2023-04-02T12:36:02.115Z,69.10
2023-04-02T12:38:48.323Z,68.60
2023-04-02T12:41:33.554Z,69.30
2023-04-02T12:44:15.616Z,69.80
2023-04-02T12:46:45.510Z,68.20
2023-04-02T12:49:45.079Z,68.60
2023-04-02T12:52:20.774Z,66.70
2023-04-02T12:55:03.807Z,67.00
2023-04-02T12:57:34.160Z,66.90
2023-04-02T13:00:21.377Z,66.50
2023-04-02T13:03:05.982Z,66.70
2023-04-02T13:05:56.522Z,68.10
2023-04-02T13:08:33.198Z,68.20
2023-04-02T13:11:05.030Z,69.00
2023-04-02T13:13:43.694Z,69.60
2023-04-02T13:16:20.118Z,69.70
2023-04-02T13:18:50.949Z,69.10
2023-04-02T13:21:21.315Z,67.70
2023-04-02T13:23:48.759Z,68.70
2023-04-02T13:26:28.389Z,69.00
2023-04-02T13:29:36.682Z,69.10
2023-04-02T13:32:13.555Z,69.10
2023-04-02T13:34:41.025Z,69.60
2023-04-02T13:37:13.415Z,68.60
2023-04-02T13:39:40.929Z,70.20
2023-04-02T13:42:11.784Z,70.60
2023-04-02T13:44:39.296Z,70.70
2023-04-02T13:47:07.531Z,70.10
2023-04-02T13:49:35.119Z,70.10
2023-04-02T13:52:05.178Z,69.00
2023-04-02T13:54:51.144Z,69.40
2023-04-02T13:57:19.129Z,69.70
2023-04-02T13:59:46.832Z,70.50
2023-04-02T14:02:23.806Z,72.30
2023-04-02T14:05:37.160Z,73.20
2023-04-02T14:08:48.582Z,73.80
2023-04-02T14:11:59.348Z,74.10
2023-04-02T14:15:13.511Z,74.70
2023-04-02T14:18:33.023Z,74.20
2023-04-02T14:22:09.563Z,77.50
2023-04-02T14:25:24.233Z,80.20
2023-04-02T14:28:15.908Z,80.30
2023-04-02T14:31:12.974Z,79.60
2023-04-02T14:34:34.516Z,79.20
2023-04-02T14:37:28.225Z,83.40
2023-04-02T14:41:04.480Z,82.80
2023-04-02T14:43:52.352Z,79.50
2023-04-02T14:46:24.767Z,78.30
2023-04-02T14:49:09.216Z,78.10
2023-04-02T14:52:14.200Z,77.90
2023-04-02T14:55:04.357Z,79.00
2023-04-02T14:57:49.159Z,78.30
2023-04-02T15:00:45.842Z,79.80
2023-04-02T15:03:24.451Z,78.60
2023-04-02T15:06:09.584Z,79.50
2023-04-02T15:09:15.037Z,75.10
2023-04-02T15:11:57.219Z,76.00
2023-04-02T15:14:51.163Z,75.60
2023-04-02T15:17:21.448Z,74.70
2023-04-02T15:19:49.732Z,70.60
2023-04-02T15:22:51.376Z,70.90
2023-04-02T15:25:55.528Z,68.70
2023-04-02T15:28:40.965Z,69.70
2023-04-02T15:31:15.013Z,70.20
2023-04-02T15:33:46.089Z,68.40
2023-04-02T15:36:47.904Z,67.00
2023-04-02T15:40:02.958Z,68.70
2023-04-02T15:42:42.193Z,69.40
2023-04-02T15:45:12.257Z,66.10
2023-04-02T15:48:42.964Z,66.10
2023-04-02T15:51:26.505Z,65.40
2023-04-02T15:54:31.471Z,65.20
2023-04-02T15:58:08.656Z,61.60
2023-04-02T16:01:01.091Z,63.70
2023-04-02T16:04:19.657Z,62.40
2023-04-02T16:07:23.406Z,62.80
2023-04-02T16:10:41.121Z,58.50
2023-04-02T16:13:39.230Z,60.70
2023-04-02T16:16:42.500Z,60.80
2023-04-02T16:19:51.944Z,61.30
2023-04-02T16:22:30.208Z,60.40
2023-04-02T16:25:19.361Z,61.40
2023-04-02T16:28:39.159Z,64.30
2023-04-02T16:31:26.232Z,63.50
2023-04-02T16:34:47.275Z,63.10
2023-04-02T16:38:07.850Z,61.20
2023-04-02T16:41:37.774Z,62.00
2023-04-02T16:45:03.081Z,63.00
2023-04-02T16:47:47.117Z,64.00
2023-04-02T16:50:45.796Z,64.40
2023-04-02T16:54:09.168Z,63.50
2023-04-02T16:57:06.932Z,63.70
2023-04-02T17:00:13.897Z,64.70
2023-04-02T17:03:58.174Z,65.50
2023-04-02T17:07:30.545Z,66.20
2023-04-02T17:10:30.396Z,67.00
2023-04-02T17:13:46.216Z,67.30
2023-04-02T17:16:33.107Z,68.00
2023-04-02T17:19:02.712Z,68.50
2023-04-02T17:21:32.490Z,69.60
2023-04-02T17:24:28.492Z,70.10
2023-04-02T17:27:32.996Z,70.30
2023-04-02T17:30:45.010Z,70.90
2023-04-02T17:33:18.239Z,73.90
2023-04-02T17:36:32.960Z,76.60
2023-04-02T17:39:53.654Z,77.70
2023-04-02T17:42:58.512Z,78.30
2023-04-02T17:45:57.383Z,78.10
2023-04-02T17:48:47.293Z,78.10
2023-04-02T17:51:48.948Z,79.50
2023-04-02T17:54:51.808Z,79.10
2023-04-02T17:58:05.664Z,79.60
2023-04-02T18:01:07.134Z,80.10
2023-04-02T18:04:16.912Z,80.20
2023-04-02T18:07:12.279Z,80.40
2023-04-02T18:09:54.416Z,80.20
2023-04-02T18:13:36.665Z,80.20
2023-04-02T18:17:21.269Z,80.00
2023-04-02T18:20:09.121Z,80.70
2023-04-02T18:23:09.052Z,82.30
2023-04-02T18:26:19.296Z,83.10
2023-04-02T18:29:41.757Z,83.00
2023-04-02T18:33:07.077Z,84.10
2023-04-02T18:36:02.598Z,84.30
2023-04-02T18:39:06.482Z,84.00
2023-04-02T18:42:13.510Z,83.90
2023-04-02T18:45:21.042Z,84.40
2023-04-02T18:48:41.129Z,84.80
2023-04-02T18:51:31.989Z,84.90
2023-04-02T18:54:56.416Z,84.90
2023-04-02T18:57:34.243Z,84.30
2023-04-02T19:00:29.240Z,84.30
2023-04-02T19:03:52.604Z,84.20
2023-04-02T19:06:35.057Z,84.60
2023-04-02T19:09:20.741Z,85.40
2023-04-02T19:11:49.059Z,85.80
2023-04-02T19:14:23.308Z,85.50
2023-04-02T19:17:44.221Z,85.60
2023-04-02T19:20:11.509Z,85.90
2023-04-02T19:23:42.750Z,85.90
2023-04-02T19:26:19.431Z,85.90
2023-04-02T19:29:04.309Z,86.20
2023-04-02T19:31:47.129Z,86.50
2023-04-02T19:35:03.093Z,86.70
2023-04-02T19:37:55.947Z,86.80
2023-04-02T19:40:54.524Z,87.60
2023-04-02T19:43:22.054Z,87.40
2023-04-02T19:45:50.350Z,87.20
2023-04-02T19:48:34.824Z,87.20
2023-04-02T19:51:02.405Z,87.70
2023-04-02T19:53:29.924Z,88.00
2023-04-02T19:55:57.672Z,88.20
2023-04-02T19:58:36.407Z,88.10
2023-04-02T20:01:04.354Z,88.20
2023-04-02T20:03:32.599Z,88.50
2023-04-02T20:06:00.247Z,88.80
2023-04-02T20:08:28.733Z,89.00
2023-04-02T20:10:58.669Z,89.50
2023-04-02T20:13:26.282Z,90.00
2023-04-02T20:15:54.078Z,90.30
2023-04-02T20:18:21.692Z,90.20
2023-04-02T20:20:49.768Z,90.20
2023-04-02T20:23:18.017Z,90.40
2023-04-02T20:25:57.174Z,90.60
2023-04-02T20:28:27.750Z,90.80
2023-04-02T20:31:05.804Z,90.80
2023-04-02T20:33:33.535Z,91.10
2023-04-02T20:36:15.905Z,91.00
2023-04-02T20:38:45.934Z,91.20
2023-04-02T20:41:16.181Z,91.00
2023-04-02T20:43:43.916Z,91.20
2023-04-02T20:46:12.952Z,91.20
2023-04-02T20:48:41.423Z,91.40
2023-04-02T20:51:14.193Z,91.40
2023-04-02T20:53:42.266Z,91.50
2023-04-02T20:56:17.024Z,91.30
2023-04-02T20:58:44.904Z,91.40
2023-04-02T21:01:27.493Z,91.30
2023-04-02T21:04:04.788Z,91.50
2023-04-02T21:06:38.068Z,91.80
2023-04-02T21:09:14.830Z,91.90
2023-04-02T21:11:42.984Z,92.20
2023-04-02T21:14:11.587Z,92.30
2023-04-02T21:16:41.835Z,92.40
2023-04-02T21:19:10.864Z,92.50
2023-04-02T21:21:39.679Z,92.80
2023-04-02T21:24:09.649Z,92.60
2023-04-02T21:26:41.624Z,92.50
2023-04-02T21:29:11.816Z,92.40
2023-04-02T21:31:42.057Z,92.30
2023-04-02T21:34:15.808Z,92.30
2023-04-02T21:36:50.503Z,92.50
2023-04-02T21:39:24.293Z,92.30
2023-04-02T21:41:53.627Z,92.40
2023-04-02T21:44:24.438Z,92.30
2023-04-02T21:46:54.114Z,92.50
2023-04-02T21:49:23.328Z,92.40
2023-04-02T21:51:51.987Z,92.30
2023-04-02T21:54:20.220Z,92.10
2023-04-02T21:56:48.923Z,92.40
